sensor_id;sensor_type;location;lat;lon;timestamp;pressure;altitude;pressure_sealevel;temperature;humidity
6599;BME280;3335;43.198;27.918;2022-12-11T00:01:16;151644.31;;;17.61;100.00
6599;BME280;3335;43.198;27.918;2022-12-11T00:03:43;151645.59;;;17.61;100.00
6599;BME280;3335;43.198;27.918;2022-12-11T00:06:14;151629.22;;;17.55;100.00
6599;BME280;3335;43.198;27.918;2022-12-11T00:08:42;151639.28;;;17.59;100.00
6599;BME280;3335;43.198;27.918;2022-12-11T00:11:10;151621.69;;;17.52;100.00
6599;BME280;3335;43.198;27.918;2022-12-11T00:13:38;151601.63;;;17.43;100.00
6599;BME280;3335;43.198;27.918;2022-12-11T00:16:06;151550.13;;;17.23;100.00
6599;BME280;3335;43.198;27.918;2022-12-11T00:18:33;151548.88;;;17.22;100.00
6599;BME280;3335;43.198;27.918;2022-12-11T00:21:00;151543.84;;;17.20;100.00
6599;BME280;3335;43.198;27.918;2022-12-11T00:23:29;151443.47;;;16.80;100.00
6599;BME280;3335;43.198;27.918;2022-12-11T00:25:56;151385.69;;;16.56;100.00
6599;BME280;3335;43.198;27.918;2022-12-11T00:28:23;151280.31;;;16.14;100.00
6599;BME280;3335;43.198;27.918;2022-12-11T00:30:50;151203.81;;;15.83;100.00
6599;BME280;3335;43.198;27.918;2022-12-11T00:33:17;151164.97;;;15.67;100.00
6599;BME280;3335;43.198;27.918;2022-12-11T00:35:45;151119.75;;;15.49;100.00
6599;BME280;3335;43.198;27.918;2022-12-11T00:38:14;151079.66;;;15.33;100.00
6599;BME280;3335;43.198;27.918;2022-12-11T00:40:43;151052.06;;;15.22;100.00
6599;BME280;3335;43.198;27.918;2022-12-11T00:43:11;151067.13;;;15.28;100.00
6599;BME280;3335;43.198;27.918;2022-12-11T00:45:40;151079.66;;;15.33;100.00
6599;BME280;3335;43.198;27.918;2022-12-11T00:48:07;151077.13;;;15.32;100.00
6599;BME280;3335;43.198;27.918;2022-12-11T00:50:35;151057.09;;;15.24;100.00
6599;BME280;3335;43.198;27.918;2022-12-11T00:53:03;151069.63;;;15.29;100.00
6599;BME280;3335;43.198;27.918;2022-12-11T00:55:31;151054.59;;;15.23;100.00
6599;BME280;3335;43.198;27.918;2022-12-11T00:57:59;151035.81;;;15.15;100.00
6599;BME280;3335;43.198;27.918;2022-12-11T01:00:26;151014.47;;;15.07;100.00
6599;BME280;3335;43.198;27.918;2022-12-11T01:02:53;150986.91;;;14.96;100.00
6599;BME280;3335;43.198;27.918;2022-12-11T01:05:20;150989.44;;;14.97;100.00
6599;BME280;3335;43.198;27.918;2022-12-11T01:07:47;150985.66;;;14.95;100.00
6599;BME280;3335;43.198;27.918;2022-12-11T01:10:14;150965.63;;;14.87;100.00
6599;BME280;3335;43.198;27.918;2022-12-11T01:12:50;150976.91;;;14.92;100.00
6599;BME280;3335;43.198;27.918;2022-12-11T01:15:19;150976.91;;;14.92;100.00
6599;BME280;3335;43.198;27.918;2022-12-11T01:17:47;150958.06;;;14.84;100.00
6599;BME280;3335;43.198;27.918;2022-12-11T01:20:14;150959.34;;;14.84;100.00
6599;BME280;3335;43.198;27.918;2022-12-11T01:22:41;150946.78;;;14.79;100.00
6599;BME280;3335;43.198;27.918;2022-12-11T01:25:09;150933.00;;;14.74;100.00
6599;BME280;3335;43.198;27.918;2022-12-11T01:27:36;150931.75;;;14.73;100.00
6599;BME280;3335;43.198;27.918;2022-12-11T01:30:05;150916.75;;;14.67;100.00
6599;BME280;3335;43.198;27.918;2022-12-11T01:32:35;150929.28;;;14.72;100.00
6599;BME280;3335;43.198;27.918;2022-12-11T01:35:02;150931.75;;;14.73;100.00
6599;BME280;3335;43.198;27.918;2022-12-11T01:37:30;150936.78;;;14.75;100.00
6599;BME280;3335;43.198;27.918;2022-12-11T01:39:57;150943.03;;;14.78;100.00
6599;BME280;3335;43.198;27.918;2022-12-11T01:42:23;150941.81;;;14.77;100.00
6599;BME280;3335;43.198;27.918;2022-12-11T01:45:22;150945.53;;;14.79;100.00
6599;BME280;3335;43.198;27.918;2022-12-11T01:47:55;150936.78;;;14.75;100.00
6599;BME280;3335;43.198;27.918;2022-12-11T01:50:23;150936.78;;;14.75;100.00
6599;BME280;3335;43.198;27.918;2022-12-11T01:52:50;150934.25;;;14.74;100.00
6599;BME280;3335;43.198;27.918;2022-12-11T01:55:18;150945.53;;;14.79;100.00
6599;BME280;3335;43.198;27.918;2022-12-11T01:57:47;150946.78;;;14.79;100.00
6599;BME280;3335;43.198;27.918;2022-12-11T02:00:17;150926.75;;;14.71;100.00
6599;BME280;3335;43.198;27.918;2022-12-11T02:02:44;150936.78;;;14.75;100.00
6599;BME280;3335;43.198;27.918;2022-12-11T02:05:13;150938.03;;;14.76;100.00
6599;BME280;3335;43.198;27.918;2022-12-11T02:07:43;150943.03;;;14.78;100.00
6599;BME280;3335;43.198;27.918;2022-12-11T02:10:11;150911.72;;;14.65;100.00
6599;BME280;3335;43.198;27.918;2022-12-11T02:12:44;150933.00;;;14.74;100.00
6599;BME280;3335;43.198;27.918;2022-12-11T02:15:19;150924.25;;;14.70;100.00
6599;BME280;3335;43.198;27.918;2022-12-11T02:17:55;150904.22;;;14.62;100.00
6599;BME280;3335;43.198;27.918;2022-12-11T02:20:30;150875.38;;;14.51;100.00
6599;BME280;3335;43.198;27.918;2022-12-11T02:23:15;150856.59;;;14.43;100.00
6599;BME280;3335;43.198;27.918;2022-12-11T02:25:51;150831.50;;;14.33;100.00
6599;BME280;3335;43.198;27.918;2022-12-11T02:28:24;150813.94;;;14.26;100.00
6599;BME280;3335;43.198;27.918;2022-12-11T02:30:58;150796.44;;;14.19;100.00
6599;BME280;3335;43.198;27.918;2022-12-11T02:33:33;150761.34;;;14.05;100.00
6599;BME280;3335;43.198;27.918;2022-12-11T02:36:02;150745.06;;;13.98;100.00
6599;BME280;3335;43.198;27.918;2022-12-11T02:38:34;150771.38;;;14.09;100.00
6599;BME280;3335;43.198;27.918;2022-12-11T02:41:04;150770.13;;;14.08;100.00
6599;BME280;3335;43.198;27.918;2022-12-11T02:43:35;150781.38;;;14.13;100.00
6599;BME280;3335;43.198;27.918;2022-12-11T02:46:05;150783.91;;;14.14;100.00
6599;BME280;3335;43.198;27.918;2022-12-11T02:48:33;150791.41;;;14.17;100.00
6599;BME280;3335;43.198;27.918;2022-12-11T02:51:02;150788.94;;;14.16;100.00
6599;BME280;3335;43.198;27.918;2022-12-11T02:53:34;150788.94;;;14.16;100.00
6599;BME280;3335;43.198;27.918;2022-12-11T02:56:09;150796.44;;;14.19;100.00
6599;BME280;3335;43.198;27.918;2022-12-11T02:58:44;150793.91;;;14.18;100.00
6599;BME280;3335;43.198;27.918;2022-12-11T03:01:13;150786.41;;;14.15;100.00
6599;BME280;3335;43.198;27.918;2022-12-11T03:03:40;150793.91;;;14.18;100.00
6599;BME280;3335;43.198;27.918;2022-12-11T03:06:09;150786.41;;;14.15;100.00
6599;BME280;3335;43.198;27.918;2022-12-11T03:08:37;150776.41;;;14.11;100.00
6599;BME280;3335;43.198;27.918;2022-12-11T03:11:04;150776.41;;;14.11;100.00
6599;BME280;3335;43.198;27.918;2022-12-11T03:13:31;150780.13;;;14.12;100.00
6599;BME280;3335;43.198;27.918;2022-12-11T03:16:06;150786.41;;;14.15;100.00
6599;BME280;3335;43.198;27.918;2022-12-11T03:18:43;150788.94;;;14.16;100.00
6599;BME280;3335;43.198;27.918;2022-12-11T03:21:15;150793.91;;;14.18;100.00
6599;BME280;3335;43.198;27.918;2022-12-11T03:23:48;150786.41;;;14.15;100.00
6599;BME280;3335;43.198;27.918;2022-12-11T03:26:17;150771.38;;;14.09;100.00
6599;BME280;3335;43.198;27.918;2022-12-11T03:28:48;150758.84;;;14.03;100.00
6599;BME280;3335;43.198;27.918;2022-12-11T03:31:22;150738.81;;;13.95;100.00
6599;BME280;3335;43.198;27.918;2022-12-11T03:33:53;150716.28;;;13.86;100.00
6599;BME280;3335;43.198;27.918;2022-12-11T03:36:26;150711.25;;;13.84;100.00
6599;BME280;3335;43.198;27.918;2022-12-11T03:38:58;150716.28;;;13.86;100.00
6599;BME280;3335;43.198;27.918;2022-12-11T03:41:30;150727.56;;;13.91;100.00
6599;BME280;3335;43.198;27.918;2022-12-11T03:43:59;150753.84;;;14.01;100.00
6599;BME280;3335;43.198;27.918;2022-12-11T03:46:30;150781.38;;;14.13;100.00
6599;BME280;3335;43.198;27.918;2022-12-11T03:49:00;150793.91;;;14.18;100.00
6599;BME280;3335;43.198;27.918;2022-12-11T03:51:28;150824.00;;;14.30;100.00
6599;BME280;3335;43.198;27.918;2022-12-11T03:53:57;150841.56;;;14.37;100.00
6599;BME280;3335;43.198;27.918;2022-12-11T03:56:26;150856.59;;;14.43;100.00
6599;BME280;3335;43.198;27.918;2022-12-11T03:58:54;150869.13;;;14.48;100.00
6599;BME280;3335;43.198;27.918;2022-12-11T04:01:21;150856.59;;;14.43;100.00
6599;BME280;3335;43.198;27.918;2022-12-11T04:03:49;150861.59;;;14.45;100.00
6599;BME280;3335;43.198;27.918;2022-12-11T04:06:16;150854.09;;;14.42;100.00
6599;BME280;3335;43.198;27.918;2022-12-11T04:08:43;150856.59;;;14.43;100.00
6599;BME280;3335;43.198;27.918;2022-12-11T04:11:10;150879.16;;;14.52;100.00
6599;BME280;3335;43.198;27.918;2022-12-11T04:13:54;150696.22;;;13.78;100.00
6599;BME280;3335;43.198;27.918;2022-12-11T04:16:35;150861.59;;;14.45;100.00
6599;BME280;3335;43.198;27.918;2022-12-11T04:19:04;150856.59;;;14.43;100.00
6599;BME280;3335;43.198;27.918;2022-12-11T04:21:47;150854.09;;;14.42;100.00
6599;BME280;3335;43.198;27.918;2022-12-11T04:24:32;150775.13;;;14.10;100.00
6599;BME280;3335;43.198;27.918;2022-12-11T04:26:59;150815.19;;;14.26;100.00
6599;BME280;3335;43.198;27.918;2022-12-11T04:29:26;150860.34;;;14.44;100.00
6599;BME280;3335;43.198;27.918;2022-12-11T04:31:52;150806.44;;;14.23;100.00
6599;BME280;3335;43.198;27.918;2022-12-11T04:34:21;150871.66;;;14.49;100.00
6599;BME280;3335;43.198;27.918;2022-12-11T04:36:48;150859.13;;;14.44;100.00
6599;BME280;3335;43.198;27.918;2022-12-11T04:39:16;150851.56;;;14.41;100.00
6599;BME280;3335;43.198;27.918;2022-12-11T04:41:43;150851.56;;;14.41;100.00
6599;BME280;3335;43.198;27.918;2022-12-11T04:44:10;150854.09;;;14.42;100.00
6599;BME280;3335;43.198;27.918;2022-12-11T04:46:37;150844.06;;;14.38;100.00
6599;BME280;3335;43.198;27.918;2022-12-11T04:49:04;150828.97;;;14.32;100.00
6599;BME280;3335;43.198;27.918;2022-12-11T04:51:32;150821.47;;;14.29;100.00
6599;BME280;3335;43.198;27.918;2022-12-11T04:53:59;150824.00;;;14.30;100.00
6599;BME280;3335;43.198;27.918;2022-12-11T04:56:26;150808.94;;;14.24;100.00
6599;BME280;3335;43.198;27.918;2022-12-11T04:58:53;150813.94;;;14.26;100.00
6599;BME280;3335;43.198;27.918;2022-12-11T05:01:21;150815.19;;;14.26;100.00
6599;BME280;3335;43.198;27.918;2022-12-11T05:03:49;150842.81;;;14.37;100.00
6599;BME280;3335;43.198;27.918;2022-12-11T05:06:16;150866.63;;;14.47;100.00
6599;BME280;3335;43.198;27.918;2022-12-11T05:08:44;150915.50;;;14.67;100.00
6599;BME280;3335;43.198;27.918;2022-12-11T05:11:13;150941.81;;;14.77;100.00
6599;BME280;3335;43.198;27.918;2022-12-11T05:13:40;151191.25;;;15.78;100.00
6599;BME280;3335;43.198;27.918;2022-12-11T05:16:09;151248.94;;;16.01;100.00
6599;BME280;3335;43.198;27.918;2022-12-11T05:18:36;151271.56;;;16.10;100.00
6599;BME280;3335;43.198;27.918;2022-12-11T05:21:06;151295.41;;;16.20;100.00
6599;BME280;3335;43.198;27.918;2022-12-11T05:23:34;151345.53;;;16.40;100.00
6599;BME280;3335;43.198;27.918;2022-12-11T05:26:04;151491.16;;;16.99;100.00
6599;BME280;3335;43.198;27.918;2022-12-11T05:28:33;151498.66;;;17.02;100.00
6599;BME280;3335;43.198;27.918;2022-12-11T05:31:02;151551.41;;;17.23;100.00
6599;BME280;3335;43.198;27.918;2022-12-11T05:33:30;151595.31;;;17.41;100.00
6599;BME280;3335;43.198;27.918;2022-12-11T05:35:58;151656.88;;;17.66;100.00
6599;BME280;3335;43.198;27.918;2022-12-11T05:38:25;151699.56;;;17.83;100.00
6599;BME280;3335;43.198;27.918;2022-12-11T05:40:56;151700.81;;;17.83;100.00
6599;BME280;3335;43.198;27.918;2022-12-11T05:43:25;151660.66;;;17.67;100.00
6599;BME280;3335;43.198;27.918;2022-12-11T05:45:53;151697.03;;;17.82;100.00
6599;BME280;3335;43.198;27.918;2022-12-11T05:48:20;151714.66;;;17.89;100.00
6599;BME280;3335;43.198;27.918;2022-12-11T05:50:56;151713.38;;;17.88;100.00
6599;BME280;3335;43.198;27.918;2022-12-11T05:53:23;151709.59;;;17.87;100.00
6599;BME280;3335;43.198;27.918;2022-12-11T05:55:51;151762.38;;;18.08;100.00
6599;BME280;3335;43.198;27.918;2022-12-11T05:58:18;151749.81;;;18.03;100.00
6599;BME280;3335;43.198;27.918;2022-12-11T06:00:46;151747.28;;;18.02;100.00
6599;BME280;3335;43.198;27.918;2022-12-11T06:03:14;151791.28;;;18.20;100.00
6599;BME280;3335;43.198;27.918;2022-12-11T06:05:41;151757.31;;;18.06;100.00
6599;BME280;3335;43.198;27.918;2022-12-11T06:08:08;151784.97;;;18.17;100.00
6599;BME280;3335;43.198;27.918;2022-12-11T06:10:35;151666.94;;;17.70;100.00
6599;BME280;3335;43.198;27.918;2022-12-11T06:13:03;151774.94;;;18.13;100.00
6599;BME280;3335;43.198;27.918;2022-12-11T06:15:31;151734.72;;;17.97;100.00
6599;BME280;3335;43.198;27.918;2022-12-11T06:17:59;151767.41;;;18.10;100.00
6599;BME280;3335;43.198;27.918;2022-12-11T06:20:26;151752.31;;;18.04;100.00
6599;BME280;3335;43.198;27.918;2022-12-11T06:22:56;151762.38;;;18.08;100.00
6599;BME280;3335;43.198;27.918;2022-12-11T06:25:23;151722.16;;;17.92;100.00
6599;BME280;3335;43.198;27.918;2022-12-11T06:27:50;151735.97;;;17.98;100.00
6599;BME280;3335;43.198;27.918;2022-12-11T06:30:17;151783.72;;;18.17;100.00
6599;BME280;3335;43.198;27.918;2022-12-11T06:32:44;151806.31;;;18.26;100.00
6599;BME280;3335;43.198;27.918;2022-12-11T06:35:12;151822.66;;;18.32;100.00
6599;BME280;3335;43.198;27.918;2022-12-11T06:37:39;151830.19;;;18.35;100.00
6599;BME280;3335;43.198;27.918;2022-12-11T06:40:08;151845.25;;;18.42;100.00
6599;BME280;3335;43.198;27.918;2022-12-11T06:42:36;151836.50;;;18.38;100.00
6599;BME280;3335;43.198;27.918;2022-12-11T06:45:04;151837.75;;;18.39;100.00
6599;BME280;3335;43.198;27.918;2022-12-11T06:47:31;151847.78;;;18.43;100.00
6599;BME280;3335;43.198;27.918;2022-12-11T06:49:58;151890.53;;;18.60;100.00
6599;BME280;3335;43.198;27.918;2022-12-11T06:52:27;151925.72;;;18.74;100.00
6599;BME280;3335;43.198;27.918;2022-12-11T06:54:54;151920.72;;;18.72;100.00
6599;BME280;3335;43.198;27.918;2022-12-11T06:57:21;151953.38;;;18.85;100.00
6599;BME280;3335;43.198;27.918;2022-12-11T06:59:48;151889.28;;;18.59;100.00
6599;BME280;3335;43.198;27.918;2022-12-11T07:02:17;152001.13;;;19.04;100.00
6599;BME280;3335;43.198;27.918;2022-12-11T07:04:44;151965.94;;;18.90;100.00
6599;BME280;3335;43.198;27.918;2022-12-11T07:07:11;152016.16;;;19.10;100.00
6599;BME280;3335;43.198;27.918;2022-12-11T07:09:40;152023.75;;;19.13;100.00
6599;BME280;3335;43.198;27.918;2022-12-11T07:12:07;152033.78;;;19.17;100.00
6599;BME280;3335;43.198;27.918;2022-12-11T07:14:34;152028.75;;;19.15;100.00
6599;BME280;3335;43.198;27.918;2022-12-11T07:17:01;152022.47;;;19.13;100.00
6599;BME280;3335;43.198;27.918;2022-12-11T07:19:28;152007.38;;;19.07;100.00
6599;BME280;3335;43.198;27.918;2022-12-11T07:21:55;151953.38;;;18.85;100.00
6599;BME280;3335;43.198;27.918;2022-12-11T07:24:22;151895.59;;;18.62;100.00
6599;BME280;3335;43.198;27.918;2022-12-11T07:26:50;151915.66;;;18.70;100.00
6599;BME280;3335;43.198;27.918;2022-12-11T07:29:18;151856.56;;;18.46;100.00
6599;BME280;3335;43.198;27.918;2022-12-11T07:31:45;151888.00;;;18.59;100.00
6599;BME280;3335;43.198;27.918;2022-12-11T07:34:12;151893.06;;;18.61;100.00
6599;BME280;3335;43.198;27.918;2022-12-11T07:36:40;151880.50;;;18.56;100.00
6599;BME280;3335;43.198;27.918;2022-12-11T07:39:07;151865.34;;;18.50;100.00
6599;BME280;3335;43.198;27.918;2022-12-11T07:41:34;151890.53;;;18.60;100.00
6599;BME280;3335;43.198;27.918;2022-12-11T07:44:03;151911.88;;;18.68;100.00
6599;BME280;3335;43.198;27.918;2022-12-11T07:46:31;151768.63;;;18.11;100.00
6599;BME280;3335;43.198;27.918;2022-12-11T07:48:58;151915.66;;;18.70;100.00
6599;BME280;3335;43.198;27.918;2022-12-11T07:51:28;151923.19;;;18.73;100.00
6599;BME280;3335;43.198;27.918;2022-12-11T07:53:56;151929.50;;;18.75;100.00
6599;BME280;3335;43.198;27.918;2022-12-11T07:56:24;151937.00;;;18.78;100.00
6599;BME280;3335;43.198;27.918;2022-12-11T07:58:51;151928.22;;;18.75;100.00
6599;BME280;3335;43.198;27.918;2022-12-11T08:01:21;151910.63;;;18.68;100.00
6599;BME280;3335;43.198;27.918;2022-12-11T08:03:49;151880.50;;;18.56;100.00
6599;BME280;3335;43.198;27.918;2022-12-11T08:06:16;151895.59;;;18.62;100.00
6599;BME280;3335;43.198;27.918;2022-12-11T08:08:43;151905.63;;;18.66;100.00
6599;BME280;3335;43.198;27.918;2022-12-11T08:11:13;151910.63;;;18.68;100.00
6599;BME280;3335;43.198;27.918;2022-12-11T08:13:41;151886.75;;;18.58;100.00
6599;BME280;3335;43.198;27.918;2022-12-11T08:16:10;151875.44;;;18.54;100.00
6599;BME280;3335;43.198;27.918;2022-12-11T08:18:39;151842.75;;;18.41;100.00
6599;BME280;3335;43.198;27.918;2022-12-11T08:21:08;151900.56;;;18.64;100.00
6599;BME280;3335;43.198;27.918;2022-12-11T08:23:35;151904.34;;;18.65;100.00
6599;BME280;3335;43.198;27.918;2022-12-11T08:26:03;151908.16;;;18.67;100.00
6599;BME280;3335;43.198;27.918;2022-12-11T08:28:31;151913.13;;;18.69;100.00
6599;BME280;3335;43.198;27.918;2022-12-11T08:30:58;151784.97;;;18.17;100.00
6599;BME280;3335;43.198;27.918;2022-12-11T08:33:25;151875.44;;;18.54;100.00
6599;BME280;3335;43.198;27.918;2022-12-11T08:35:54;151930.75;;;18.76;100.00
6599;BME280;3335;43.198;27.918;2022-12-11T08:38:21;151923.19;;;18.73;100.00
6599;BME280;3335;43.198;27.918;2022-12-11T08:40:48;151925.72;;;18.74;100.00
6599;BME280;3335;43.198;27.918;2022-12-11T08:43:15;151947.06;;;18.83;100.00
6599;BME280;3335;43.198;27.918;2022-12-11T08:45:42;151942.06;;;18.81;100.00
6599;BME280;3335;43.198;27.918;2022-12-11T08:48:08;151955.91;;;18.86;100.00
6599;BME280;3335;43.198;27.918;2022-12-11T08:50:36;151963.41;;;18.89;100.00
6599;BME280;3335;43.198;27.918;2022-12-11T08:53:04;151989.81;;;19.00;100.00
6599;BME280;3335;43.198;27.918;2022-12-11T08:55:31;151993.56;;;19.01;100.00
6599;BME280;3335;43.198;27.918;2022-12-11T08:57:58;152018.69;;;19.11;100.00
6599;BME280;3335;43.198;27.918;2022-12-11T09:00:25;152038.84;;;19.19;100.00
6599;BME280;3335;43.198;27.918;2022-12-11T09:02:52;152062.72;;;19.29;100.00
6599;BME280;3335;43.198;27.918;2022-12-11T09:05:19;152053.88;;;19.26;100.00
6599;BME280;3335;43.198;27.918;2022-12-11T09:07:46;152068.97;;;19.32;100.00
6599;BME280;3335;43.198;27.918;2022-12-11T09:10:14;152033.78;;;19.17;100.00
6599;BME280;3335;43.198;27.918;2022-12-11T09:12:41;152086.56;;;19.39;100.00
6599;BME280;3335;43.198;27.918;2022-12-11T09:15:09;151762.38;;;18.08;100.00
6599;BME280;3335;43.198;27.918;2022-12-11T09:17:36;152086.56;;;19.39;100.00
6599;BME280;3335;43.198;27.918;2022-12-11T09:20:04;152080.28;;;19.36;100.00
6599;BME280;3335;43.198;27.918;2022-12-11T09:22:31;152109.28;;;19.48;100.00
6599;BME280;3335;43.198;27.918;2022-12-11T09:24:58;152105.47;;;19.46;100.00
6599;BME280;3335;43.198;27.918;2022-12-11T09:27:27;152136.91;;;19.59;100.00
6599;BME280;3335;43.198;27.918;2022-12-11T09:29:54;152119.31;;;19.52;100.00
6599;BME280;3335;43.198;27.918;2022-12-11T09:32:21;152106.75;;;19.47;100.00
6599;BME280;3335;43.198;27.918;2022-12-11T09:34:49;152081.56;;;19.37;100.00
6599;BME280;3335;43.198;27.918;2022-12-11T09:37:16;152118.06;;;19.51;100.00
6599;BME280;3335;43.198;27.918;2022-12-11T09:39:43;152109.28;;;19.48;100.00
6599;BME280;3335;43.198;27.918;2022-12-11T09:42:13;152043.84;;;19.21;100.00
6599;BME280;3335;43.198;27.918;2022-12-11T09:44:46;152021.22;;;19.12;100.00
6599;BME280;3335;43.198;27.918;2022-12-11T09:47:19;152052.63;;;19.25;100.00
6599;BME280;3335;43.198;27.918;2022-12-11T09:49:49;152001.13;;;19.04;100.00
6599;BME280;3335;43.198;27.918;2022-12-11T09:52:19;152076.50;;;19.35;100.00
6599;BME280;3335;43.198;27.918;2022-12-11T09:54:51;151898.06;;;18.63;100.00
6599;BME280;3335;43.198;27.918;2022-12-11T09:57:33;152084.06;;;19.38;100.00
6599;BME280;3335;43.198;27.918;2022-12-11T10:00:13;152099.19;;;19.44;100.00
6599;BME280;3335;43.198;27.918;2022-12-11T10:06:02;152159.53;;;19.68;100.00
6599;BME280;3335;43.198;27.918;2022-12-11T10:08:37;152187.19;;;19.79;100.00
6599;BME280;3335;43.198;27.918;2022-12-11T10:14:09;152121.84;;;19.53;100.00
6599;BME280;3335;43.198;27.918;2022-12-11T10:16:43;152141.94;;;19.61;100.00
6599;BME280;3335;43.198;27.918;2022-12-11T10:19:15;152100.44;;;19.44;100.00
6599;BME280;3335;43.198;27.918;2022-12-11T10:21:43;152035.06;;;19.18;100.00
6599;BME280;3335;43.198;27.918;2022-12-11T10:24:17;152170.84;;;19.73;100.00
6599;BME280;3335;43.198;27.918;2022-12-11T10:26:52;152144.47;;;19.62;100.00
6599;BME280;3335;43.198;27.918;2022-12-11T10:29:20;152154.53;;;19.66;100.00
6599;BME280;3335;43.198;27.918;2022-12-11T10:31:52;152194.72;;;19.82;100.00
6599;BME280;3335;43.198;27.918;2022-12-11T10:34:27;152167.09;;;19.71;100.00
6599;BME280;3335;43.198;27.918;2022-12-11T10:36:56;152129.38;;;19.56;100.00
6599;BME280;3335;43.198;27.918;2022-12-11T10:39:23;152143.22;;;19.61;100.00
6599;BME280;3335;43.198;27.918;2022-12-11T10:41:51;152096.66;;;19.43;100.00
6599;BME280;3335;43.198;27.918;2022-12-11T10:44:20;152110.47;;;19.48;100.00
6599;BME280;3335;43.198;27.918;2022-12-11T10:47:01;152146.94;;;19.63;100.00
6599;BME280;3335;43.198;27.918;2022-12-11T10:49:31;152201.03;;;19.85;100.00
6599;BME280;3335;43.198;27.918;2022-12-11T10:51:59;152209.81;;;19.88;100.00
6599;BME280;3335;43.198;27.918;2022-12-11T10:54:30;152143.22;;;19.61;100.00
6599;BME280;3335;43.198;27.918;2022-12-11T10:56:59;152189.72;;;19.80;100.00
6599;BME280;3335;43.198;27.918;2022-12-11T10:59:32;152160.78;;;19.69;100.00
6599;BME280;3335;43.198;27.918;2022-12-11T11:02:03;152146.94;;;19.63;100.00
6599;BME280;3335;43.198;27.918;2022-12-11T11:04:33;152146.94;;;19.63;100.00
6599;BME280;3335;43.198;27.918;2022-12-11T11:07:07;152129.38;;;19.56;100.00
6599;BME280;3335;43.198;27.918;2022-12-11T11:09:37;152086.56;;;19.39;100.00
6599;BME280;3335;43.198;27.918;2022-12-11T11:12:17;152096.66;;;19.43;100.00
6599;BME280;3335;43.198;27.918;2022-12-11T11:14:44;152096.66;;;19.43;100.00
6599;BME280;3335;43.198;27.918;2022-12-11T11:17:15;152149.47;;;19.64;100.00
6599;BME280;3335;43.198;27.918;2022-12-11T11:19:46;152177.16;;;19.75;100.00
6599;BME280;3335;43.198;27.918;2022-12-11T11:22:15;152116.81;;;19.51;100.00
6599;BME280;3335;43.198;27.918;2022-12-11T11:24:44;152174.63;;;19.74;100.00
6599;BME280;3335;43.198;27.918;2022-12-11T11:27:19;152194.72;;;19.82;100.00
6599;BME280;3335;43.198;27.918;2022-12-11T11:29:51;152192.25;;;19.81;100.00
6599;BME280;3335;43.198;27.918;2022-12-11T11:32:23;152140.69;;;19.60;100.00
6599;BME280;3335;43.198;27.918;2022-12-11T11:35:04;152174.63;;;19.74;100.00
6599;BME280;3335;43.198;27.918;2022-12-11T11:37:32;152033.78;;;19.17;100.00
6599;BME280;3335;43.198;27.918;2022-12-11T11:40:05;151867.88;;;18.51;100.00
6599;BME280;3335;43.198;27.918;2022-12-11T11:42:40;151888.00;;;18.59;100.00
6599;BME280;3335;43.198;27.918;2022-12-11T11:45:11;151820.13;;;18.31;100.00
6599;BME280;3335;43.198;27.918;2022-12-11T11:47:50;151797.53;;;18.22;100.00
6599;BME280;3335;43.198;27.918;2022-12-11T11:50:24;151739.75;;;17.99;100.00
6599;BME280;3335;43.198;27.918;2022-12-11T11:52:56;151707.13;;;17.86;100.00
6599;BME280;3335;43.198;27.918;2022-12-11T11:55:35;151606.63;;;17.45;100.00
6599;BME280;3335;43.198;27.918;2022-12-11T11:58:11;151591.53;;;17.39;100.00
6599;BME280;3335;43.198;27.918;2022-12-11T12:00:40;151597.84;;;17.42;100.00
6599;BME280;3335;43.198;27.918;2022-12-11T12:03:11;151615.38;;;17.49;100.00
6599;BME280;3335;43.198;27.918;2022-12-11T12:05:43;151468.56;;;16.90;100.00
6599;BME280;3335;43.198;27.918;2022-12-11T12:08:16;151601.63;;;17.43;100.00
6599;BME280;3335;43.198;27.918;2022-12-11T12:10:59;151631.72;;;17.56;100.00
6599;BME280;3335;43.198;27.918;2022-12-11T12:13:33;151632.97;;;17.56;100.00
6599;BME280;3335;43.198;27.918;2022-12-11T12:16:10;151616.66;;;17.49;100.00
6599;BME280;3335;43.198;27.918;2022-12-11T12:18:48;151636.78;;;17.58;100.00
6599;BME280;3335;43.198;27.918;2022-12-11T12:21:23;151676.97;;;17.74;100.00
6599;BME280;3335;43.198;27.918;2022-12-11T12:24:03;151684.53;;;17.77;100.00
6599;BME280;3335;43.198;27.918;2022-12-11T12:26:36;151679.50;;;17.75;100.00
6599;BME280;3335;43.198;27.918;2022-12-11T12:29:12;151679.50;;;17.75;100.00
6599;BME280;3335;43.198;27.918;2022-12-11T12:32:04;151704.59;;;17.85;100.00
6599;BME280;3335;43.198;27.918;2022-12-11T12:34:42;151697.03;;;17.82;100.00
6599;BME280;3335;43.198;27.918;2022-12-11T12:37:18;151707.13;;;17.86;100.00
6599;BME280;3335;43.198;27.918;2022-12-11T12:39:55;151729.72;;;17.95;100.00
6599;BME280;3335;43.198;27.918;2022-12-11T12:42:34;151746.03;;;18.02;100.00
6599;BME280;3335;43.198;27.918;2022-12-11T12:45:09;151774.94;;;18.13;100.00
6599;BME280;3335;43.198;27.918;2022-12-11T12:47:43;151764.88;;;18.09;100.00
6599;BME280;3335;43.198;27.918;2022-12-11T12:50:16;151754.84;;;18.05;100.00
6599;BME280;3335;43.198;27.918;2022-12-11T12:52:44;151731.00;;;17.96;100.00
6599;BME280;3335;43.198;27.918;2022-12-11T12:55:18;151724.69;;;17.93;100.00
6599;BME280;3335;43.198;27.918;2022-12-11T12:57:50;151702.09;;;17.84;100.00
6599;BME280;3335;43.198;27.918;2022-12-11T13:00:30;151682.00;;;17.76;100.00
6599;BME280;3335;43.198;27.918;2022-12-11T13:02:58;151619.16;;;17.50;100.00
6599;BME280;3335;43.198;27.918;2022-12-11T13:05:31;151621.69;;;17.52;100.00
6599;BME280;3335;43.198;27.918;2022-12-11T13:08:00;151619.16;;;17.50;100.00
6599;BME280;3335;43.198;27.918;2022-12-11T13:10:30;151585.28;;;17.37;100.00